Scandia, Minnesota
Current Conditions -  °F | °C
As of 11:55 AM on Saturday 25 Oct 2014 (Local Time) from KOEO Reporting Station
Clear Clear  
Wind Chill: 57°   Ceiling: Unl
Heat Index: 57°   Visibility: 10mi
Dew Point: 32°   Wind: 16mph
Humidity: 38%   Direction: 300°WNW
Pressure: 30.05"   Gusts: 22mph
Location:  45.25°N, 92.81°W
Report Text: KOEO 251655Z AUTO 30014G19KT 10SM CLR 14/00 A3005 RMK AO2 T01400000
Loading
Personal Weather Stations






























Interactive Weather Map
Tropical Storm Tracking
New forecast layout! Learn more

10-Day Weather Forecast

Advertisements
Track Severe Weather on mobile